sensor_id;sensor_type;location;lat;lon;timestamp;pressure;altitude;pressure_sealevel;temperature;humidity
60852;BME280;48553;50.766;2.900;2023-01-31T00:02:44;101995.19;;;5.04;83.68
60852;BME280;48553;50.766;2.900;2023-01-31T00:05:44;101987.88;;;5.05;83.90
60852;BME280;48553;50.766;2.900;2023-01-31T00:08:47;101997.88;;;5.04;83.97
60852;BME280;48553;50.766;2.900;2023-01-31T00:11:47;101994.09;;;5.00;83.91
60852;BME280;48553;50.766;2.900;2023-01-31T00:14:48;102007.13;;;4.98;83.90
60852;BME280;48553;50.766;2.900;2023-01-31T00:17:48;101986.22;;;4.98;83.68
60852;BME280;48553;50.766;2.900;2023-01-31T00:20:49;101988.38;;;4.96;83.65
60852;BME280;48553;50.766;2.900;2023-01-31T00:23:50;101985.66;;;4.96;83.56
60852;BME280;48553;50.766;2.900;2023-01-31T00:26:50;101982.38;;;4.94;83.77
60852;BME280;48553;50.766;2.900;2023-01-31T00:29:56;101988.91;;;4.93;83.74
60852;BME280;48553;50.766;2.900;2023-01-31T00:32:56;101983.44;;;4.88;83.87
60852;BME280;48553;50.766;2.900;2023-01-31T00:35:56;101994.59;;;4.87;83.91
60852;BME280;48553;50.766;2.900;2023-01-31T00:38:59;101978.00;;;4.88;83.85
60852;BME280;48553;50.766;2.900;2023-01-31T00:42:00;101976.66;;;4.86;83.89
60852;BME280;48553;50.766;2.900;2023-01-31T00:45:01;101969.59;;;4.85;83.95
60852;BME280;48553;50.766;2.900;2023-01-31T00:48:02;101964.16;;;4.85;83.93
60852;BME280;48553;50.766;2.900;2023-01-31T00:51:02;101959.78;;;4.78;84.00
60852;BME280;48553;50.766;2.900;2023-01-31T00:54:03;101955.72;;;4.76;83.71
60852;BME280;48553;50.766;2.900;2023-01-31T00:57:03;101951.38;;;4.75;84.02
60852;BME280;48553;50.766;2.900;2023-01-31T01:00:04;101963.84;;;4.71;83.96
60852;BME280;48553;50.766;2.900;2023-01-31T01:03:05;101966.56;;;4.71;83.67
60852;BME280;48553;50.766;2.900;2023-01-31T01:06:06;101945.09;;;4.69;83.87
60852;BME280;48553;50.766;2.900;2023-01-31T01:09:07;101959.22;;;4.71;83.98
60852;BME280;48553;50.766;2.900;2023-01-31T01:12:07;101952.44;;;4.69;83.63
60852;BME280;48553;50.766;2.900;2023-01-31T01:15:08;101941.56;;;4.69;83.73
60852;BME280;48553;50.766;2.900;2023-01-31T01:18:08;101939.91;;;4.63;83.84
60852;BME280;48553;50.766;2.900;2023-01-31T01:21:11;101940.72;;;4.63;83.97
60852;BME280;48553;50.766;2.900;2023-01-31T01:24:15;101955.41;;;4.62;83.83
60852;BME280;48553;50.766;2.900;2023-01-31T01:27:16;101947.25;;;4.57;84.00
60852;BME280;48553;50.766;2.900;2023-01-31T01:30:16;101950.75;;;4.57;83.97
60852;BME280;48553;50.766;2.900;2023-01-31T01:33:17;101948.59;;;4.54;83.87
60852;BME280;48553;50.766;2.900;2023-01-31T01:36:17;101956.44;;;4.56;83.70
60852;BME280;48553;50.766;2.900;2023-01-31T01:39:21;101953.47;;;4.52;83.83
60852;BME280;48553;50.766;2.900;2023-01-31T01:42:23;101948.53;;;4.49;83.73
60852;BME280;48553;50.766;2.900;2023-01-31T01:45:24;101964.03;;;4.54;83.91
60852;BME280;48553;50.766;2.900;2023-01-31T01:48:25;101954.81;;;4.50;83.85
60852;BME280;48553;50.766;2.900;2023-01-31T01:51:28;101963.22;;;4.48;84.02
60852;BME280;48553;50.766;2.900;2023-01-31T01:54:35;101962.66;;;4.46;83.97
60852;BME280;48553;50.766;2.900;2023-01-31T01:57:39;101966.47;;;4.45;83.96
60852;BME280;48553;50.766;2.900;2023-01-31T02:00:41;101958.31;;;4.45;83.99
60852;BME280;48553;50.766;2.900;2023-01-31T02:03:45;101955.88;;;4.44;83.96
60852;BME280;48553;50.766;2.900;2023-01-31T02:06:47;101960.75;;;4.42;83.85
60852;BME280;48553;50.766;2.900;2023-01-31T02:10:08;101966.97;;;4.37;84.03
60852;BME280;48553;50.766;2.900;2023-01-31T02:13:12;101955.84;;;4.38;84.05
60852;BME280;48553;50.766;2.900;2023-01-31T02:16:14;101958.81;;;4.37;83.99
60852;BME280;48553;50.766;2.900;2023-01-31T02:19:34;101954.75;;;4.34;84.04
60852;BME280;48553;50.766;2.900;2023-01-31T02:33:19;101957.44;;;4.29;84.04
60852;BME280;48553;50.766;2.900;2023-01-31T02:50:19;101944.88;;;4.18;84.30
60852;BME280;48553;50.766;2.900;2023-01-31T02:53:28;101938.63;;;4.17;84.24
60852;BME280;48553;50.766;2.900;2023-01-31T02:56:32;101947.84;;;4.16;84.21
60852;BME280;48553;50.766;2.900;2023-01-31T02:59:33;101943.50;;;4.15;84.17
60852;BME280;48553;50.766;2.900;2023-01-31T03:02:35;101940.25;;;4.13;84.27
60852;BME280;48553;50.766;2.900;2023-01-31T03:05:35;101946.75;;;4.12;84.40
60852;BME280;48553;50.766;2.900;2023-01-31T03:08:41;101948.66;;;4.12;84.21
60852;BME280;48553;50.766;2.900;2023-01-31T03:22:26;101924.75;;;4.09;84.57
60852;BME280;48553;50.766;2.900;2023-01-31T03:25:31;101930.69;;;4.06;84.26
60852;BME280;48553;50.766;2.900;2023-01-31T03:28:35;101935.56;;;4.04;84.22
60852;BME280;48553;50.766;2.900;2023-01-31T03:31:40;101922.28;;;4.02;84.33
60852;BME280;48553;50.766;2.900;2023-01-31T03:34:43;101929.88;;;4.00;84.35
60852;BME280;48553;50.766;2.900;2023-01-31T03:37:51;101913.84;;;3.98;84.28
60852;BME280;48553;50.766;2.900;2023-01-31T03:41:04;101913.03;;;3.98;84.53
60852;BME280;48553;50.766;2.900;2023-01-31T03:44:20;101914.09;;;3.97;84.56
60852;BME280;48553;50.766;2.900;2023-01-31T03:47:30;101915.19;;;3.96;84.79
60852;BME280;48553;50.766;2.900;2023-01-31T03:50:36;101914.63;;;3.94;84.66
60852;BME280;48553;50.766;2.900;2023-01-31T03:53:46;101913.53;;;3.95;84.84
60852;BME280;48553;50.766;2.900;2023-01-31T03:59:56;101900.75;;;3.90;84.66
60852;BME280;48553;50.766;2.900;2023-01-31T04:03:15;101905.38;;;3.90;84.70
60852;BME280;48553;50.766;2.900;2023-01-31T04:06:18;101896.44;;;3.89;84.52
60852;BME280;48553;50.766;2.900;2023-01-31T04:09:18;101909.44;;;3.87;84.58
60852;BME280;48553;50.766;2.900;2023-01-31T04:12:20;101910.00;;;3.89;84.48
60852;BME280;48553;50.766;2.900;2023-01-31T04:15:20;101899.41;;;3.88;84.88
60852;BME280;48553;50.766;2.900;2023-01-31T04:18:21;101904.53;;;3.84;84.81
60852;BME280;48553;50.766;2.900;2023-01-31T04:21:22;101892.06;;;3.83;85.08
60852;BME280;48553;50.766;2.900;2023-01-31T04:24:22;101883.66;;;3.85;84.96
60852;BME280;48553;50.766;2.900;2023-01-31T04:27:22;101884.19;;;3.82;85.06
60852;BME280;48553;50.766;2.900;2023-01-31T04:30:23;101878.78;;;3.82;85.24
60852;BME280;48553;50.766;2.900;2023-01-31T04:33:23;101869.81;;;3.81;85.28
60852;BME280;48553;50.766;2.900;2023-01-31T04:36:24;101881.50;;;3.82;85.67
60852;BME280;48553;50.766;2.900;2023-01-31T04:39:25;101874.16;;;3.82;85.62
60852;BME280;48553;50.766;2.900;2023-01-31T04:42:25;101882.28;;;3.82;85.87
60852;BME280;48553;50.766;2.900;2023-01-31T04:45:26;101877.13;;;3.81;86.05
60852;BME280;48553;50.766;2.900;2023-01-31T04:48:26;101861.41;;;3.83;86.06
60852;BME280;48553;50.766;2.900;2023-01-31T04:51:27;101867.66;;;3.83;86.26
60852;BME280;48553;50.766;2.900;2023-01-31T04:54:27;101874.16;;;3.82;86.32
60852;BME280;48553;50.766;2.900;2023-01-31T04:57:27;101862.75;;;3.80;86.53
60852;BME280;48553;50.766;2.900;2023-01-31T05:00:28;101857.34;;;3.80;86.67
60852;BME280;48553;50.766;2.900;2023-01-31T05:03:28;101857.09;;;3.82;86.92
60852;BME280;48553;50.766;2.900;2023-01-31T05:06:29;101852.72;;;3.81;86.97
60852;BME280;48553;50.766;2.900;2023-01-31T05:09:29;101848.38;;;3.80;87.02
60852;BME280;48553;50.766;2.900;2023-01-31T05:12:30;101858.69;;;3.83;86.99
60852;BME280;48553;50.766;2.900;2023-01-31T05:15:30;101869.28;;;3.84;86.89
60852;BME280;48553;50.766;2.900;2023-01-31T05:18:32;101865.75;;;3.84;86.93
60852;BME280;48553;50.766;2.900;2023-01-31T05:21:34;101866.59;;;3.84;86.96
60852;BME280;48553;50.766;2.900;2023-01-31T05:24:54;101867.09;;;3.81;87.15
60852;BME280;48553;50.766;2.900;2023-01-31T05:27:54;101869.28;;;3.84;86.95
60852;BME280;48553;50.766;2.900;2023-01-31T05:31:01;101865.22;;;3.82;87.45
60852;BME280;48553;50.766;2.900;2023-01-31T05:34:02;101857.59;;;3.84;87.36
60852;BME280;48553;50.766;2.900;2023-01-31T05:37:03;101862.22;;;3.83;87.53
60852;BME280;48553;50.766;2.900;2023-01-31T05:40:04;101852.19;;;3.84;87.55
60852;BME280;48553;50.766;2.900;2023-01-31T05:43:04;101847.31;;;3.86;87.65
60852;BME280;48553;50.766;2.900;2023-01-31T05:46:05;101848.09;;;3.81;87.71
60852;BME280;48553;50.766;2.900;2023-01-31T05:49:05;101843.00;;;3.85;87.76
60852;BME280;48553;50.766;2.900;2023-01-31T05:52:06;101849.47;;;3.84;87.76
60852;BME280;48553;50.766;2.900;2023-01-31T05:55:07;101843.00;;;3.85;87.75
60852;BME280;48553;50.766;2.900;2023-01-31T05:58:07;101840.28;;;3.85;87.98
60852;BME280;48553;50.766;2.900;2023-01-31T06:01:08;101843.53;;;3.87;88.23
60852;BME280;48553;50.766;2.900;2023-01-31T06:04:09;101848.16;;;3.86;87.96
60852;BME280;48553;50.766;2.900;2023-01-31T06:07:09;101844.09;;;3.89;88.11
60852;BME280;48553;50.766;2.900;2023-01-31T06:10:11;101841.38;;;3.89;88.18
60852;BME280;48553;50.766;2.900;2023-01-31T06:13:12;101844.34;;;3.87;88.22
60852;BME280;48553;50.766;2.900;2023-01-31T06:16:13;101828.34;;;3.86;88.48
60852;BME280;48553;50.766;2.900;2023-01-31T06:19:13;101830.25;;;3.85;88.43
60852;BME280;48553;50.766;2.900;2023-01-31T06:22:14;101812.38;;;3.89;88.48
60852;BME280;48553;50.766;2.900;2023-01-31T06:25:14;101816.69;;;3.90;88.18
60852;BME280;48553;50.766;2.900;2023-01-31T06:28:15;101805.03;;;3.90;88.17
60852;BME280;48553;50.766;2.900;2023-01-31T06:31:17;101813.97;;;3.90;88.37
60852;BME280;48553;50.766;2.900;2023-01-31T06:34:18;101814.81;;;3.91;88.43
60852;BME280;48553;50.766;2.900;2023-01-31T06:37:19;101810.22;;;3.91;88.46
60852;BME280;48553;50.766;2.900;2023-01-31T06:40:19;101806.69;;;3.91;88.29
60852;BME280;48553;50.766;2.900;2023-01-31T06:43:20;101806.94;;;3.89;88.22
60852;BME280;48553;50.766;2.900;2023-01-31T06:46:21;101792.56;;;3.89;88.67
60852;BME280;48553;50.766;2.900;2023-01-31T06:49:21;101791.75;;;3.88;88.77
60852;BME280;48553;50.766;2.900;2023-01-31T06:52:21;101785.00;;;3.91;88.64
60852;BME280;48553;50.766;2.900;2023-01-31T06:55:22;101795.78;;;3.86;88.73
60852;BME280;48553;50.766;2.900;2023-01-31T06:58:22;101791.22;;;3.91;88.63
60852;BME280;48553;50.766;2.900;2023-01-31T07:01:23;101800.97;;;3.92;88.31
60852;BME280;48553;50.766;2.900;2023-01-31T07:04:25;101809.66;;;3.89;88.53
60852;BME280;48553;50.766;2.900;2023-01-31T07:07:25;101816.69;;;3.90;88.14
60852;BME280;48553;50.766;2.900;2023-01-31T07:10:26;101801.78;;;3.88;88.25
60852;BME280;48553;50.766;2.900;2023-01-31T07:13:27;101808.28;;;3.87;88.42
60852;BME280;48553;50.766;2.900;2023-01-31T07:16:28;101813.44;;;3.88;88.54
60852;BME280;48553;50.766;2.900;2023-01-31T07:19:28;101817.25;;;3.87;88.83
60852;BME280;48553;50.766;2.900;2023-01-31T07:22:28;101819.13;;;3.87;88.75
60852;BME280;48553;50.766;2.900;2023-01-31T07:25:29;101819.41;;;3.90;88.68
60852;BME280;48553;50.766;2.900;2023-01-31T07:28:31;101828.38;;;3.91;88.77
60852;BME280;48553;50.766;2.900;2023-01-31T07:31:31;101823.78;;;3.91;88.88
60852;BME280;48553;50.766;2.900;2023-01-31T07:34:32;101813.72;;;3.92;89.06
60852;BME280;48553;50.766;2.900;2023-01-31T07:37:33;101821.06;;;3.91;89.01
60852;BME280;48553;50.766;2.900;2023-01-31T07:40:33;101820.81;;;3.93;89.08
60852;BME280;48553;50.766;2.900;2023-01-31T07:43:33;101822.97;;;3.96;89.00
60852;BME280;48553;50.766;2.900;2023-01-31T07:46:34;101830.00;;;3.97;89.33
60852;BME280;48553;50.766;2.900;2023-01-31T07:49:34;101819.72;;;3.99;89.38
60852;BME280;48553;50.766;2.900;2023-01-31T07:52:35;101827.84;;;3.99;89.50
60852;BME280;48553;50.766;2.900;2023-01-31T07:55:35;101834.94;;;4.00;89.59
60852;BME280;48553;50.766;2.900;2023-01-31T07:58:36;101833.03;;;4.01;89.65
60852;BME280;48553;50.766;2.900;2023-01-31T08:01:37;101836.56;;;4.01;89.74
60852;BME280;48553;50.766;2.900;2023-01-31T08:04:56;101822.72;;;4.03;89.95
60852;BME280;48553;50.766;2.900;2023-01-31T08:07:57;101820.84;;;4.03;90.07
60852;BME280;48553;50.766;2.900;2023-01-31T08:11:09;101824.09;;;4.05;90.00
60852;BME280;48553;50.766;2.900;2023-01-31T08:14:10;101824.66;;;4.07;90.27
60852;BME280;48553;50.766;2.900;2023-01-31T08:17:10;101819.78;;;4.09;90.27
60852;BME280;48553;50.766;2.900;2023-01-31T08:20:11;101809.19;;;4.08;90.37
60852;BME280;48553;50.766;2.900;2023-01-31T08:23:11;101804.88;;;4.12;90.63
60852;BME280;48553;50.766;2.900;2023-01-31T08:26:13;101801.34;;;4.16;90.50
60852;BME280;48553;50.766;2.900;2023-01-31T08:29:14;101787.53;;;4.18;90.52
60852;BME280;48553;50.766;2.900;2023-01-31T08:32:15;101787.00;;;4.21;90.35
60852;BME280;48553;50.766;2.900;2023-01-31T08:35:15;101788.34;;;4.24;90.37
60852;BME280;48553;50.766;2.900;2023-01-31T08:38:16;101785.63;;;4.29;90.06
60852;BME280;48553;50.766;2.900;2023-01-31T08:41:18;101779.16;;;4.30;90.22
60852;BME280;48553;50.766;2.900;2023-01-31T08:44:19;101782.13;;;4.33;89.82
60852;BME280;48553;50.766;2.900;2023-01-31T08:47:19;101774.81;;;4.34;89.84
60852;BME280;48553;50.766;2.900;2023-01-31T08:50:20;101768.84;;;4.37;89.64
60852;BME280;48553;50.766;2.900;2023-01-31T08:53:20;101769.41;;;4.39;90.09
60852;BME280;48553;50.766;2.900;2023-01-31T08:56:21;101771.31;;;4.49;89.66
60852;BME280;48553;50.766;2.900;2023-01-31T08:59:25;101769.41;;;4.49;89.51
60852;BME280;48553;50.766;2.900;2023-01-31T09:02:25;101766.72;;;4.54;89.68
60852;BME280;48553;50.766;2.900;2023-01-31T09:05:27;101764.25;;;4.63;89.17
60852;BME280;48553;50.766;2.900;2023-01-31T09:08:28;101770.22;;;4.65;89.02
60852;BME280;48553;50.766;2.900;2023-01-31T09:11:29;101783.81;;;4.65;89.25
60852;BME280;48553;50.766;2.900;2023-01-31T09:14:30;101761.28;;;4.65;89.22
60852;BME280;48553;50.766;2.900;2023-01-31T09:17:30;101764.28;;;4.68;89.53
60852;BME280;48553;50.766;2.900;2023-01-31T09:20:30;101772.97;;;4.70;89.75
60852;BME280;48553;50.766;2.900;2023-01-31T09:23:31;101774.03;;;4.74;90.47
60852;BME280;48553;50.766;2.900;2023-01-31T09:26:31;101781.09;;;4.75;90.38
60852;BME280;48553;50.766;2.900;2023-01-31T09:29:32;101778.41;;;4.75;90.13
60852;BME280;48553;50.766;2.900;2023-01-31T09:32:32;101777.56;;;4.80;91.26
60852;BME280;48553;50.766;2.900;2023-01-31T09:35:33;101778.13;;;4.82;91.46
60852;BME280;48553;50.766;2.900;2023-01-31T09:38:34;101767.25;;;4.87;92.66
60852;BME280;48553;50.766;2.900;2023-01-31T09:41:36;101767.81;;;4.89;91.52
60852;BME280;48553;50.766;2.900;2023-01-31T09:44:41;101765.38;;;4.93;90.90
60852;BME280;48553;50.766;2.900;2023-01-31T09:47:49;101763.44;;;4.98;91.36
60852;BME280;48553;50.766;2.900;2023-01-31T09:50:52;101771.59;;;5.03;92.74
60852;BME280;48553;50.766;2.900;2023-01-31T09:53:56;101777.56;;;5.06;92.63
60852;BME280;48553;50.766;2.900;2023-01-31T10:00:47;101766.13;;;5.19;94.77
60852;BME280;48553;50.766;2.900;2023-01-31T10:07:29;101750.34;;;5.36;94.82
60852;BME280;48553;50.766;2.900;2023-01-31T10:10:48;101755.72;;;5.52;93.19
60852;BME280;48553;50.766;2.900;2023-01-31T10:13:55;101749.22;;;5.48;92.67
60852;BME280;48553;50.766;2.900;2023-01-31T10:17:08;101758.75;;;5.50;93.93
60852;BME280;48553;50.766;2.900;2023-01-31T10:23:28;101757.31;;;6.28;91.50
60852;BME280;48553;50.766;2.900;2023-01-31T10:26:36;101759.75;;;6.69;90.94
60852;BME280;48553;50.766;2.900;2023-01-31T10:29:45;101752.94;;;7.01;90.18
60852;BME280;48553;50.766;2.900;2023-01-31T10:32:54;101764.72;;;7.25;90.36
60852;BME280;48553;50.766;2.900;2023-01-31T10:36:02;101769.38;;;7.49;89.00
60852;BME280;48553;50.766;2.900;2023-01-31T10:39:13;101751.16;;;7.44;89.09
60852;BME280;48553;50.766;2.900;2023-01-31T10:45:27;101721.50;;;7.62;89.40
60852;BME280;48553;50.766;2.900;2023-01-31T10:48:30;101711.75;;;7.56;89.69
60852;BME280;48553;50.766;2.900;2023-01-31T10:57:55;101726.06;;;7.90;88.57
60852;BME280;48553;50.766;2.900;2023-01-31T11:00:57;101729.41;;;7.82;89.15
60852;BME280;48553;50.766;2.900;2023-01-31T11:04:00;101729.31;;;7.68;92.29
60852;BME280;48553;50.766;2.900;2023-01-31T11:07:01;101732.41;;;7.62;92.71
60852;BME280;48553;50.766;2.900;2023-01-31T11:10:20;101729.22;;;7.55;94.33
60852;BME280;48553;50.766;2.900;2023-01-31T11:13:22;101722.19;;;7.48;94.99
60852;BME280;48553;50.766;2.900;2023-01-31T11:16:23;101728.47;;;7.49;96.24
60852;BME280;48553;50.766;2.900;2023-01-31T11:19:31;101729.03;;;7.46;95.64
60852;BME280;48553;50.766;2.900;2023-01-31T11:22:35;101728.25;;;7.45;96.37
60852;BME280;48553;50.766;2.900;2023-01-31T11:25:36;101728.75;;;7.47;96.68
60852;BME280;48553;50.766;2.900;2023-01-31T11:28:39;101729.56;;;7.48;96.79
60852;BME280;48553;50.766;2.900;2023-01-31T11:31:41;101706.06;;;7.52;96.83
60852;BME280;48553;50.766;2.900;2023-01-31T11:38:18;101715.28;;;7.56;96.74
60852;BME280;48553;50.766;2.900;2023-01-31T11:41:30;101712.53;;;7.56;97.24
60852;BME280;48553;50.766;2.900;2023-01-31T11:44:31;101712.25;;;7.58;97.38
60852;BME280;48553;50.766;2.900;2023-01-31T11:47:51;101698.91;;;7.56;97.95
60852;BME280;48553;50.766;2.900;2023-01-31T11:50:54;101700.53;;;7.57;97.80
60852;BME280;48553;50.766;2.900;2023-01-31T11:53:56;101693.25;;;7.52;97.37
60852;BME280;48553;50.766;2.900;2023-01-31T11:56:58;101692.19;;;7.48;96.95
60852;BME280;48553;50.766;2.900;2023-01-31T12:00:02;101680.13;;;7.55;97.74
60852;BME280;48553;50.766;2.900;2023-01-31T12:03:06;101687.78;;;7.52;97.55
60852;BME280;48553;50.766;2.900;2023-01-31T12:06:08;101689.69;;;7.52;97.39
60852;BME280;48553;50.766;2.900;2023-01-31T12:09:21;101669.22;;;7.55;97.98
60852;BME280;48553;50.766;2.900;2023-01-31T12:12:27;101673.03;;;7.53;97.98
60852;BME280;48553;50.766;2.900;2023-01-31T12:15:31;101661.03;;;7.55;97.90
60852;BME280;48553;50.766;2.900;2023-01-31T12:18:43;101673.03;;;7.53;98.10
60852;BME280;48553;50.766;2.900;2023-01-31T12:22:15;101667.56;;;7.53;98.04
60852;BME280;48553;50.766;2.900;2023-01-31T12:25:45;101664.84;;;7.53;98.11
60852;BME280;48553;50.766;2.900;2023-01-31T12:38:55;101661.91;;;7.50;97.70
60852;BME280;48553;50.766;2.900;2023-01-31T12:46:04;101673.34;;;7.52;98.28
60852;BME280;48553;50.766;2.900;2023-01-31T12:49:27;101679.06;;;7.50;98.13
60852;BME280;48553;50.766;2.900;2023-01-31T12:59:03;101690.34;;;7.44;97.64
60852;BME280;48553;50.766;2.900;2023-01-31T13:02:16;101685.69;;;7.44;99.13
60852;BME280;48553;50.766;2.900;2023-01-31T13:05:32;101683.56;;;7.41;99.86
60852;BME280;48553;50.766;2.900;2023-01-31T13:08:36;101690.97;;;7.36;99.12
60852;BME280;48553;50.766;2.900;2023-01-31T13:11:42;101686.09;;;7.32;99.55
60852;BME280;48553;50.766;2.900;2023-01-31T13:14:55;101674.69;;;7.30;99.96
60852;BME280;48553;50.766;2.900;2023-01-31T13:18:03;101696.28;;;7.27;100.00
60852;BME280;48553;50.766;2.900;2023-01-31T13:21:07;101683.72;;;7.26;100.00
60852;BME280;48553;50.766;2.900;2023-01-31T13:24:17;101687.84;;;7.23;96.18
60852;BME280;48553;50.766;2.900;2023-01-31T13:27:25;101701.72;;;7.27;100.00
60852;BME280;48553;50.766;2.900;2023-01-31T13:37:12;101694.41;;;7.22;98.33
60852;BME280;48553;50.766;2.900;2023-01-31T13:40:17;101688.97;;;7.22;95.91
60852;BME280;48553;50.766;2.900;2023-01-31T13:43:19;101688.97;;;7.22;95.67
60852;BME280;48553;50.766;2.900;2023-01-31T13:46:44;101674.50;;;7.22;94.83
60852;BME280;48553;50.766;2.900;2023-01-31T13:52:55;101664.72;;;7.21;97.06
60852;BME280;48553;50.766;2.900;2023-01-31T13:55:57;101654.59;;;7.21;96.64
60852;BME280;48553;50.766;2.900;2023-01-31T13:59:00;101648.56;;;7.24;97.69
60852;BME280;48553;50.766;2.900;2023-01-31T14:02:04;101651.06;;;7.21;97.24
60852;BME280;48553;50.766;2.900;2023-01-31T14:05:49;101660.59;;;7.23;97.19
60852;BME280;48553;50.766;2.900;2023-01-31T14:08:55;101649.31;;;7.30;95.10
60852;BME280;48553;50.766;2.900;2023-01-31T14:11:58;101645.97;;;7.38;94.50
60852;BME280;48553;50.766;2.900;2023-01-31T14:15:00;101651.81;;;7.50;97.04
60852;BME280;48553;50.766;2.900;2023-01-31T14:18:01;101646.00;;;7.57;100.00
60852;BME280;48553;50.766;2.900;2023-01-31T14:30:55;101648.22;;;7.93;99.39
60852;BME280;48553;50.766;2.900;2023-01-31T14:33:56;101647.84;;;8.00;99.99
60852;BME280;48553;50.766;2.900;2023-01-31T14:58:56;101696.81;;;8.10;99.47
60852;BME280;48553;50.766;2.900;2023-01-31T15:01:57;101701.03;;;8.02;99.39
60852;BME280;48553;50.766;2.900;2023-01-31T15:14:41;101704.84;;;7.82;95.99
60852;BME280;48553;50.766;2.900;2023-01-31T15:17:44;101693.41;;;7.80;95.57
60852;BME280;48553;50.766;2.900;2023-01-31T15:20:50;101695.63;;;7.78;95.90
60852;BME280;48553;50.766;2.900;2023-01-31T15:23:52;101683.66;;;7.74;96.05
60852;BME280;48553;50.766;2.900;2023-01-31T15:26:53;101681.03;;;7.69;97.01
60852;BME280;48553;50.766;2.900;2023-01-31T15:33:05;101690.31;;;7.68;95.68
60852;BME280;48553;50.766;2.900;2023-01-31T15:39:21;101691.47;;;7.62;96.74
60852;BME280;48553;50.766;2.900;2023-01-31T15:42:24;101696.94;;;7.62;96.59
60852;BME280;48553;50.766;2.900;2023-01-31T15:45:28;101694.50;;;7.60;96.60
60852;BME280;48553;50.766;2.900;2023-01-31T15:48:29;101699.16;;;7.60;96.64
60852;BME280;48553;50.766;2.900;2023-01-31T15:51:29;101695.09;;;7.57;96.45
60852;BME280;48553;50.766;2.900;2023-01-31T15:54:30;101701.88;;;7.60;95.90
60852;BME280;48553;50.766;2.900;2023-01-31T15:57:37;101704.06;;;7.58;96.14
60852;BME280;48553;50.766;2.900;2023-01-31T16:00:40;101702.16;;;7.58;96.11
60852;BME280;48553;50.766;2.900;2023-01-31T16:03:48;101707.91;;;7.57;95.94
60852;BME280;48553;50.766;2.900;2023-01-31T16:06:50;101705.19;;;7.57;96.31
60852;BME280;48553;50.766;2.900;2023-01-31T16:09:51;101698.91;;;7.56;96.11
60852;BME280;48553;50.766;2.900;2023-01-31T16:12:54;101714.47;;;7.56;95.88
60852;BME280;48553;50.766;2.900;2023-01-31T16:15:55;101709.81;;;7.56;95.61
60852;BME280;48553;50.766;2.900;2023-01-31T16:18:57;101719.91;;;7.56;95.77
60852;BME280;48553;50.766;2.900;2023-01-31T16:21:59;101722.97;;;7.54;96.38
60852;BME280;48553;50.766;2.900;2023-01-31T16:25:02;101723.75;;;7.55;96.12
60852;BME280;48553;50.766;2.900;2023-01-31T16:28:04;101734.16;;;7.52;96.14
60852;BME280;48553;50.766;2.900;2023-01-31T16:31:11;101736.88;;;7.52;96.39
60852;BME280;48553;50.766;2.900;2023-01-31T16:34:31;101747.53;;;7.49;96.82
60852;BME280;48553;50.766;2.900;2023-01-31T16:37:37;101728.75;;;7.47;96.46
60852;BME280;48553;50.766;2.900;2023-01-31T16:40:46;101729.56;;;7.48;96.28
60852;BME280;48553;50.766;2.900;2023-01-31T16:43:49;101734.22;;;7.47;96.44
60852;BME280;48553;50.766;2.900;2023-01-31T16:46:50;101741.06;;;7.45;96.97
60852;BME280;48553;50.766;2.900;2023-01-31T16:53:23;101739.44;;;7.44;96.57
60852;BME280;48553;50.766;2.900;2023-01-31T16:56:24;101737.28;;;7.41;96.92
60852;BME280;48553;50.766;2.900;2023-01-31T16:59:44;101744.63;;;7.40;97.17
60852;BME280;48553;50.766;2.900;2023-01-31T17:02:46;101728.59;;;7.39;97.61
60852;BME280;48553;50.766;2.900;2023-01-31T17:05:47;101726.66;;;7.39;96.88
60852;BME280;48553;50.766;2.900;2023-01-31T17:08:47;101726.13;;;7.37;96.98
60852;BME280;48553;50.766;2.900;2023-01-31T17:11:48;101729.66;;;7.38;96.90
60852;BME280;48553;50.766;2.900;2023-01-31T17:14:49;101721.81;;;7.36;96.77
60852;BME280;48553;50.766;2.900;2023-01-31T17:17:56;101721.56;;;7.32;97.38
60852;BME280;48553;50.766;2.900;2023-01-31T17:20:57;101716.38;;;7.31;97.02
60852;BME280;48553;50.766;2.900;2023-01-31T17:23:57;101710.94;;;7.31;97.00
60852;BME280;48553;50.766;2.900;2023-01-31T17:26:58;101705.72;;;7.35;96.36
60852;BME280;48553;50.766;2.900;2023-01-31T17:29:59;101702.75;;;7.31;96.92
60852;BME280;48553;50.766;2.900;2023-01-31T17:33:00;101704.13;;;7.28;96.51
60852;BME280;48553;50.766;2.900;2023-01-31T17:36:00;101694.34;;;7.27;96.70
60852;BME280;48553;50.766;2.900;2023-01-31T17:39:01;101686.16;;;7.27;96.62
60852;BME280;48553;50.766;2.900;2023-01-31T17:42:02;101696.84;;;7.24;96.66
60852;BME280;48553;50.766;2.900;2023-01-31T17:45:04;101703.41;;;7.23;96.29
60852;BME280;48553;50.766;2.900;2023-01-31T17:48:05;101700.94;;;7.21;96.43
60852;BME280;48553;50.766;2.900;2023-01-31T17:51:06;101693.91;;;7.15;96.57
60852;BME280;48553;50.766;2.900;2023-01-31T17:54:06;101700.22;;;7.16;96.38
60852;BME280;48553;50.766;2.900;2023-01-31T17:57:06;101690.91;;;7.17;95.96
60852;BME280;48553;50.766;2.900;2023-01-31T18:00:09;101697.19;;;7.17;96.30
60852;BME280;48553;50.766;2.900;2023-01-31T18:03:18;101694.75;;;7.16;96.13
60852;BME280;48553;50.766;2.900;2023-01-31T18:06:19;101695.84;;;7.15;96.29
60852;BME280;48553;50.766;2.900;2023-01-31T18:09:19;101689.59;;;7.14;96.75
60852;BME280;48553;50.766;2.900;2023-01-31T18:12:20;101697.75;;;7.14;96.36
60852;BME280;48553;50.766;2.900;2023-01-31T18:15:20;101700.78;;;7.13;97.16
60852;BME280;48553;50.766;2.900;2023-01-31T18:18:20;101701.00;;;7.16;96.86
60852;BME280;48553;50.766;2.900;2023-01-31T18:21:22;101701.59;;;7.13;96.75
60852;BME280;48553;50.766;2.900;2023-01-31T18:24:22;101700.78;;;7.13;96.71
60852;BME280;48553;50.766;2.900;2023-01-31T18:27:23;101696.97;;;7.14;97.22
60852;BME280;48553;50.766;2.900;2023-01-31T18:30:23;101691.50;;;7.14;96.80
60852;BME280;48553;50.766;2.900;2023-01-31T18:33:24;101695.84;;;7.15;96.75
60852;BME280;48553;50.766;2.900;2023-01-31T18:36:24;101716.03;;;7.14;97.40